createdAt,value
2023-10-05T00:00:39.768Z,99227.25
2023-10-05T00:06:12.570Z,99219.31
2023-10-05T00:11:26.283Z,99218.86
2023-10-05T00:16:39.281Z,99220.61
2023-10-05T00:21:52.557Z,99222.67
2023-10-05T00:27:00.570Z,99221.19
2023-10-05T00:32:11.552Z,99217.40
2023-10-05T00:37:19.459Z,99215.59
2023-10-05T00:42:26.531Z,99211.31
2023-10-05T00:47:34.203Z,99213.61
2023-10-05T00:52:45.242Z,99210.20
2023-10-05T00:57:53.046Z,99205.86
2023-10-05T01:03:24.645Z,99199.29
2023-10-05T01:08:33.851Z,99193.02
2023-10-05T01:13:40.723Z,99190.34
2023-10-05T01:18:47.879Z,99187.24
2023-10-05T01:23:55.015Z,99182.35
2023-10-05T01:29:02.229Z,99170.42
2023-10-05T01:34:09.888Z,99160.36
2023-10-05T01:39:20.443Z,99161.87
2023-10-05T01:44:28.260Z,99155.86
2023-10-05T01:49:35.030Z,99150.39
2023-10-05T01:54:44.838Z,99147.14
2023-10-05T01:59:51.649Z,99142.24
2023-10-05T02:04:59.193Z,99136.86
2023-10-05T02:10:11.456Z,99134.57
2023-10-05T02:15:18.990Z,99128.79
2023-10-05T02:20:42.087Z,99123.40
2023-10-05T02:25:56.109Z,99122.05
2023-10-05T02:31:04.060Z,99122.77
2023-10-05T02:36:19.006Z,99124.06
2023-10-05T02:41:39.621Z,99124.47
2023-10-05T02:46:48.963Z,99123.27
2023-10-05T02:51:56.523Z,99126.54
2023-10-05T02:57:05.074Z,99121.55
2023-10-05T03:02:16.464Z,99125.59
2023-10-05T03:07:27.266Z,99120.21
2023-10-05T03:12:34.545Z,99110.47
2023-10-05T03:17:41.316Z,99107.09
2023-10-05T03:22:49.094Z,99116.05
2023-10-05T03:27:58.104Z,99110.29
2023-10-05T03:33:07.248Z,99117.96
2023-10-05T03:38:20.862Z,99115.98
2023-10-05T03:43:28.961Z,99118.20
2023-10-05T03:48:39.670Z,99120.35
2023-10-05T03:53:52.869Z,99121.55
2023-10-05T03:59:02.024Z,99118.70
2023-10-05T04:04:10.384Z,99120.13
2023-10-05T04:09:18.667Z,99115.79
2023-10-05T04:14:27.994Z,99111.30
2023-10-05T04:19:35.131Z,99110.35
2023-10-05T04:24:43.177Z,99104.48
2023-10-05T04:29:51.458Z,99097.36
2023-10-05T04:34:59.267Z,99091.38
2023-10-05T04:40:10.955Z,99081.55
2023-10-05T04:45:18.968Z,99072.46
2023-10-05T04:50:26.919Z,99069.45
2023-10-05T04:55:36.815Z,99053.86
2023-10-05T05:01:06.605Z,99043.02
2023-10-05T05:06:13.777Z,99041.04
2023-10-05T05:11:21.593Z,99047.93
2023-10-05T05:16:29.175Z,99059.04
2023-10-05T05:21:37.300Z,99063.23
2023-10-05T05:26:44.447Z,99058.58
2023-10-05T05:31:51.940Z,99055.71
2023-10-05T05:36:58.802Z,99057.45
2023-10-05T05:42:08.349Z,99049.60
2023-10-05T05:47:16.378Z,99052.80
2023-10-05T05:52:24.370Z,99050.02
2023-10-05T05:57:31.377Z,99055.24
2023-10-05T06:02:40.842Z,99050.85
2023-10-05T06:07:51.968Z,99053.05
2023-10-05T06:13:00.160Z,99055.58
2023-10-05T06:18:08.709Z,99057.40
2023-10-05T06:23:15.607Z,99057.33
2023-10-05T06:28:22.351Z,99057.08
2023-10-05T06:33:29.471Z,99052.71
2023-10-05T06:38:36.924Z,99054.39
2023-10-05T06:43:44.174Z,99054.54
2023-10-05T06:48:52.132Z,99059.21
2023-10-05T06:53:59.923Z,99066.27
2023-10-05T06:59:09.174Z,99072.38
2023-10-05T07:04:17.079Z,99070.56
2023-10-05T07:09:28.137Z,99061.32
2023-10-05T07:14:34.959Z,99064.24
2023-10-05T07:19:43.467Z,99076.77
2023-10-05T07:24:50.857Z,99075.27
2023-10-05T07:29:58.128Z,99073.30
2023-10-05T07:35:07.009Z,99075.76
2023-10-05T07:40:15.561Z,99077.19
2023-10-05T07:45:22.432Z,99073.07
2023-10-05T07:50:29.193Z,99072.91
2023-10-05T07:55:36.982Z,99067.21
2023-10-05T08:00:43.908Z,99064.45
2023-10-05T08:05:51.238Z,99056.61
2023-10-05T08:10:58.718Z,99056.17
2023-10-05T08:16:05.804Z,99056.06
2023-10-05T08:21:12.973Z,99055.60
2023-10-05T08:26:20.037Z,99043.66
2023-10-05T08:31:27.173Z,99036.30
2023-10-05T08:36:34.947Z,99043.97
2023-10-05T08:41:42.797Z,99040.98
2023-10-05T08:46:51.049Z,99041.42
2023-10-05T08:52:05.253Z,99042.92
2023-10-05T08:57:12.920Z,99041.13
2023-10-05T09:02:23.774Z,99041.99
2023-10-05T09:07:37.840Z,99035.81
2023-10-05T09:12:49.231Z,99030.27
2023-10-05T09:18:19.053Z,99026.91
2023-10-05T09:23:33.742Z,99022.80
2023-10-05T09:28:53.543Z,99021.33
2023-10-05T09:34:07.859Z,99024.70
2023-10-05T09:39:17.891Z,99022.70
2023-10-05T09:44:30.599Z,99022.72
2023-10-05T09:49:45.788Z,99021.23
2023-10-05T09:54:53.190Z,99020.49
2023-10-05T10:00:10.127Z,99013.45
2023-10-05T10:05:32.062Z,99005.27
2023-10-05T10:10:41.812Z,98998.21
2023-10-05T10:15:52.668Z,98996.71
2023-10-05T10:21:00.085Z,98985.38
2023-10-05T10:26:18.877Z,98988.95
2023-10-05T10:31:34.108Z,98986.49
2023-10-05T10:36:53.884Z,98980.39
2023-10-05T10:42:06.617Z,98979.63
2023-10-05T10:47:13.854Z,98977.50
2023-10-05T10:52:32.069Z,98981.61
2023-10-05T10:57:40.304Z,98968.69
2023-10-05T11:02:48.753Z,98969.27
2023-10-05T11:08:03.897Z,98967.70
2023-10-05T11:13:16.272Z,98966.59
2023-10-05T11:18:23.867Z,98953.87
2023-10-05T11:23:31.698Z,98950.57
2023-10-05T11:28:38.599Z,98943.20
2023-10-05T11:34:02.430Z,98933.46
2023-10-05T11:39:23.538Z,98918.08
2023-10-05T11:44:30.793Z,98916.05
2023-10-05T11:49:43.861Z,98911.38
2023-10-05T11:54:55.021Z,98916.36
2023-10-05T12:00:02.480Z,98912.52
2023-10-05T12:05:11.588Z,98909.84
2023-10-05T12:10:18.943Z,98903.98
2023-10-05T12:15:29.994Z,98902.27
2023-10-05T12:20:37.882Z,98894.83
2023-10-05T12:25:46.601Z,98900.14
2023-10-05T12:30:53.746Z,98896.45
2023-10-05T12:36:03.226Z,98889.48
2023-10-05T12:41:16.028Z,98887.11
2023-10-05T12:46:30.482Z,98887.28
2023-10-05T12:51:37.605Z,98885.70
2023-10-05T12:56:44.409Z,98894.81
2023-10-05T13:01:51.554Z,98892.68
2023-10-05T13:06:58.698Z,98890.80
2023-10-05T13:12:10.501Z,98891.38
2023-10-05T13:17:17.517Z,98891.21
2023-10-05T13:22:27.067Z,98891.64
2023-10-05T13:27:37.763Z,98892.59
2023-10-05T13:32:45.014Z,98889.58
2023-10-05T13:37:51.729Z,98888.58
2023-10-05T13:42:58.628Z,98881.60
2023-10-05T13:48:05.782Z,98878.38
2023-10-05T13:53:13.028Z,98879.81
2023-10-05T13:58:21.732Z,98877.92
2023-10-05T14:03:29.018Z,98872.98
2023-10-05T14:08:37.297Z,98874.95
2023-10-05T14:13:45.042Z,98872.89
2023-10-05T14:18:51.947Z,98873.48
2023-10-05T14:24:00.243Z,98862.34
2023-10-05T14:29:08.321Z,98871.20
2023-10-05T14:34:17.722Z,98868.27
2023-10-05T14:39:25.310Z,98870.56
2023-10-05T14:44:37.077Z,98872.95
2023-10-05T14:49:44.264Z,98872.30
2023-10-05T14:54:51.407Z,98871.77
2023-10-05T14:59:59.111Z,98870.67
2023-10-05T15:05:06.484Z,98874.38
2023-10-05T15:10:19.238Z,98872.80
2023-10-05T15:15:26.412Z,98879.85
2023-10-05T15:20:34.241Z,98877.02
2023-10-05T15:25:41.863Z,98873.30
2023-10-05T15:30:50.297Z,98879.18
2023-10-05T15:35:58.728Z,98880.06
2023-10-05T15:41:06.268Z,98879.91
2023-10-05T15:46:13.477Z,98880.55
2023-10-05T15:51:20.301Z,98886.40
2023-10-05T15:56:28.777Z,98886.98
2023-10-05T16:01:35.802Z,98885.31
2023-10-05T16:06:45.447Z,98896.48
2023-10-05T16:11:52.466Z,98900.05
2023-10-05T16:16:59.852Z,98901.49
2023-10-05T16:22:07.343Z,98903.15
2023-10-05T16:27:15.116Z,98902.38
2023-10-05T16:32:21.993Z,98911.79
2023-10-05T16:37:32.143Z,98917.50
2023-10-05T16:42:40.833Z,98918.53
2023-10-05T16:47:48.164Z,98924.40
2023-10-05T16:52:55.932Z,98927.34
2023-10-05T16:58:03.258Z,98927.50
2023-10-05T17:03:12.610Z,98929.47
2023-10-05T17:08:22.472Z,98932.65
2023-10-05T17:13:29.703Z,98938.17
2023-10-05T17:18:36.439Z,98939.08
2023-10-05T17:23:43.240Z,98940.34
2023-10-05T17:28:51.327Z,98940.59
2023-10-05T17:33:57.966Z,98941.31
2023-10-05T17:39:06.805Z,98948.36
2023-10-05T17:44:13.931Z,98952.72
2023-10-05T17:49:21.072Z,98951.61
2023-10-05T17:54:28.125Z,98950.52
2023-10-05T17:59:35.366Z,98958.98
2023-10-05T18:04:42.276Z,98967.94
2023-10-05T18:09:49.077Z,98962.86
2023-10-05T18:14:57.454Z,98968.56
2023-10-05T18:20:04.982Z,98971.04
2023-10-05T18:25:12.147Z,98969.46
2023-10-05T18:30:19.315Z,98975.23
2023-10-05T18:35:26.408Z,98977.95
2023-10-05T18:40:34.969Z,98978.97
2023-10-05T18:45:42.753Z,98981.42
2023-10-05T18:50:49.549Z,98985.61
2023-10-05T18:55:56.704Z,98990.53
2023-10-05T19:01:07.752Z,98992.84
2023-10-05T19:06:15.007Z,98991.90
2023-10-05T19:11:22.363Z,98991.97
2023-10-05T19:16:30.921Z,98996.25
2023-10-05T19:21:38.077Z,98996.56
2023-10-05T19:26:49.378Z,98995.38
2023-10-05T19:31:56.479Z,99001.63
2023-10-05T19:37:03.788Z,99001.86
2023-10-05T19:42:10.778Z,99005.44
2023-10-05T19:47:20.280Z,99007.41
2023-10-05T19:52:29.477Z,99008.38
2023-10-05T19:57:36.429Z,99013.91
2023-10-05T20:02:43.539Z,99018.30
2023-10-05T20:07:58.086Z,99029.28
2023-10-05T20:13:07.052Z,99039.66
2023-10-05T20:18:14.018Z,99042.59
2023-10-05T20:23:20.899Z,99039.60
2023-10-05T20:28:28.660Z,99042.61
2023-10-05T20:33:35.578Z,99044.42
2023-10-05T20:38:42.781Z,99043.80
2023-10-05T20:43:49.838Z,99041.11
2023-10-05T20:48:57.067Z,99040.16
2023-10-05T20:54:04.393Z,99043.33
2023-10-05T20:59:13.768Z,99044.99
2023-10-05T21:04:20.540Z,99044.52
2023-10-05T21:09:27.310Z,99046.50
2023-10-05T21:14:34.497Z,99051.88
2023-10-05T21:19:41.278Z,99055.31
2023-10-05T21:24:48.098Z,99049.69
2023-10-05T21:29:55.176Z,99055.87
2023-10-05T21:35:03.082Z,99057.54
2023-10-05T21:40:11.153Z,99059.52
2023-10-05T21:45:19.515Z,99062.30
2023-10-05T21:50:26.500Z,99061.52
2023-10-05T21:55:33.550Z,99067.92
2023-10-05T22:00:54.314Z,99072.75
2023-10-05T22:06:01.281Z,99071.88
2023-10-05T22:11:12.218Z,99074.58
2023-10-05T22:16:19.187Z,99073.00
2023-10-05T22:21:26.335Z,99073.63
2023-10-05T22:26:33.626Z,99078.61
2023-10-05T22:31:40.519Z,99079.65
2023-10-05T22:36:47.549Z,99076.16
2023-10-05T22:41:54.946Z,99078.78
2023-10-05T22:47:01.849Z,99083.70
2023-10-05T22:52:08.698Z,99083.62
2023-10-05T22:57:15.529Z,99089.66
2023-10-05T23:02:23.091Z,99094.24
2023-10-05T23:07:30.268Z,99095.67
2023-10-05T23:12:38.138Z,99101.13
2023-10-05T23:17:45.019Z,99113.48
2023-10-05T23:22:51.911Z,99114.27
2023-10-05T23:27:58.592Z,99117.75
2023-10-05T23:33:07.509Z,99123.77
2023-10-05T23:38:14.661Z,99129.32
2023-10-05T23:43:21.991Z,99137.79
2023-10-05T23:48:29.066Z,99136.30
2023-10-05T23:53:37.372Z,99140.41
2023-10-05T23:58:47.025Z,99141.36
